sensor_id;sensor_type;location;lat;lon;timestamp;temperature;humidity
75931;DHT22;64609;47.052;15.462;2022-12-18T00:01:30;4.30;71.10
75931;DHT22;64609;47.052;15.462;2022-12-18T00:03:59;4.30;70.80
75931;DHT22;64609;47.052;15.462;2022-12-18T00:06:27;4.30;70.80
75931;DHT22;64609;47.052;15.462;2022-12-18T00:08:54;4.20;71.00
75931;DHT22;64609;47.052;15.462;2022-12-18T00:11:22;4.20;71.30
75931;DHT22;64609;47.052;15.462;2022-12-18T00:13:48;4.20;71.20
75931;DHT22;64609;47.052;15.462;2022-12-18T00:16:16;4.20;71.10
75931;DHT22;64609;47.052;15.462;2022-12-18T00:18:43;4.10;71.40
75931;DHT22;64609;47.052;15.462;2022-12-18T00:21:11;4.10;71.10
75931;DHT22;64609;47.052;15.462;2022-12-18T00:23:37;4.10;71.50
75931;DHT22;64609;47.052;15.462;2022-12-18T00:26:09;4.10;71.50
75931;DHT22;64609;47.052;15.462;2022-12-18T00:28:35;4.10;71.10
75931;DHT22;64609;47.052;15.462;2022-12-18T00:31:06;4.00;71.30
75931;DHT22;64609;47.052;15.462;2022-12-18T00:33:33;4.00;71.40
75931;DHT22;64609;47.052;15.462;2022-12-18T00:36:06;4.00;71.30
75931;DHT22;64609;47.052;15.462;2022-12-18T00:38:33;4.00;70.80
75931;DHT22;64609;47.052;15.462;2022-12-18T00:40:59;4.00;71.00
75931;DHT22;64609;47.052;15.462;2022-12-18T00:43:25;3.90;71.10
75931;DHT22;64609;47.052;15.462;2022-12-18T00:45:51;3.90;71.00
75931;DHT22;64609;47.052;15.462;2022-12-18T00:48:17;3.90;70.80
75931;DHT22;64609;47.052;15.462;2022-12-18T00:50:42;3.90;70.60
75931;DHT22;64609;47.052;15.462;2022-12-18T00:53:11;3.80;70.80
75931;DHT22;64609;47.052;15.462;2022-12-18T00:55:39;3.80;70.80
75931;DHT22;64609;47.052;15.462;2022-12-18T00:58:04;3.80;70.60
75931;DHT22;64609;47.052;15.462;2022-12-18T01:00:30;3.80;70.40
75931;DHT22;64609;47.052;15.462;2022-12-18T01:02:56;3.80;70.50
75931;DHT22;64609;47.052;15.462;2022-12-18T01:05:21;3.80;70.60
75931;DHT22;64609;47.052;15.462;2022-12-18T01:07:47;3.70;70.70
75931;DHT22;64609;47.052;15.462;2022-12-18T01:10:13;3.70;71.70
75931;DHT22;64609;47.052;15.462;2022-12-18T01:12:39;3.70;70.70
75931;DHT22;64609;47.052;15.462;2022-12-18T01:15:06;3.70;70.80
75931;DHT22;64609;47.052;15.462;2022-12-18T01:17:32;3.60;70.50
75931;DHT22;64609;47.052;15.462;2022-12-18T01:19:58;3.60;70.60
75931;DHT22;64609;47.052;15.462;2022-12-18T01:22:23;3.60;70.50
75931;DHT22;64609;47.052;15.462;2022-12-18T01:24:49;3.60;70.70
75931;DHT22;64609;47.052;15.462;2022-12-18T01:27:15;3.60;70.50
75931;DHT22;64609;47.052;15.462;2022-12-18T01:29:40;3.60;70.50
75931;DHT22;64609;47.052;15.462;2022-12-18T01:32:07;3.50;70.40
75931;DHT22;64609;47.052;15.462;2022-12-18T01:34:33;3.50;70.40
75931;DHT22;64609;47.052;15.462;2022-12-18T01:37:02;3.50;70.40
75931;DHT22;64609;47.052;15.462;2022-12-18T01:39:28;3.50;70.50
75931;DHT22;64609;47.052;15.462;2022-12-18T01:41:54;3.50;70.50
75931;DHT22;64609;47.052;15.462;2022-12-18T01:52:43;3.40;70.00
75931;DHT22;64609;47.052;15.462;2022-12-18T01:55:10;3.30;70.10
75931;DHT22;64609;47.052;15.462;2022-12-18T01:57:37;3.30;70.60
75931;DHT22;64609;47.052;15.462;2022-12-18T02:00:13;3.30;70.70
75931;DHT22;64609;47.052;15.462;2022-12-18T02:02:41;3.30;70.70
75931;DHT22;64609;47.052;15.462;2022-12-18T02:05:07;3.30;70.60
75931;DHT22;64609;47.052;15.462;2022-12-18T02:13:18;3.20;70.90
75931;DHT22;64609;47.052;15.462;2022-12-18T02:18:46;3.20;70.50
75931;DHT22;64609;47.052;15.462;2022-12-18T02:26:45;3.10;70.00
75931;DHT22;64609;47.052;15.462;2022-12-18T02:29:18;3.10;70.20
75931;DHT22;64609;47.052;15.462;2022-12-18T02:31:54;3.00;70.00
75931;DHT22;64609;47.052;15.462;2022-12-18T02:34:25;3.00;70.20
75931;DHT22;64609;47.052;15.462;2022-12-18T02:36:53;3.00;70.10
75931;DHT22;64609;47.052;15.462;2022-12-18T02:39:21;3.00;70.00
75931;DHT22;64609;47.052;15.462;2022-12-18T02:41:48;3.00;70.00
75931;DHT22;64609;47.052;15.462;2022-12-18T02:44:14;2.90;70.00
75931;DHT22;64609;47.052;15.462;2022-12-18T02:46:45;2.90;70.00
75931;DHT22;64609;47.052;15.462;2022-12-18T02:58:02;2.80;70.10
75931;DHT22;64609;47.052;15.462;2022-12-18T03:03:34;2.80;70.10
75931;DHT22;64609;47.052;15.462;2022-12-18T03:08:56;2.70;70.00
75931;DHT22;64609;47.052;15.462;2022-12-18T03:11:19;2.70;70.00
75931;DHT22;64609;47.052;15.462;2022-12-18T03:14:06;2.70;70.10
75931;DHT22;64609;47.052;15.462;2022-12-18T03:16:34;2.70;70.20
75931;DHT22;64609;47.052;15.462;2022-12-18T03:19:08;2.70;70.00
75931;DHT22;64609;47.052;15.462;2022-12-18T03:21:42;2.60;70.00
75931;DHT22;64609;47.052;15.462;2022-12-18T03:24:10;2.60;70.00
75931;DHT22;64609;47.052;15.462;2022-12-18T03:26:38;2.60;70.40
75931;DHT22;64609;47.052;15.462;2022-12-18T03:29:22;2.60;70.30
75931;DHT22;64609;47.052;15.462;2022-12-18T03:31:54;2.60;70.60
75931;DHT22;64609;47.052;15.462;2022-12-18T03:34:26;2.60;70.30
75931;DHT22;64609;47.052;15.462;2022-12-18T03:36:53;2.60;70.20
75931;DHT22;64609;47.052;15.462;2022-12-18T03:39:19;2.60;70.20
75931;DHT22;64609;47.052;15.462;2022-12-18T03:44:57;2.60;70.20
75931;DHT22;64609;47.052;15.462;2022-12-18T03:55:43;2.50;69.90
75931;DHT22;64609;47.052;15.462;2022-12-18T03:58:11;2.50;69.90
75931;DHT22;64609;47.052;15.462;2022-12-18T04:00:40;2.50;70.00
75931;DHT22;64609;47.052;15.462;2022-12-18T04:03:07;2.40;70.20
75931;DHT22;64609;47.052;15.462;2022-12-18T04:05:35;2.40;70.00
75931;DHT22;64609;47.052;15.462;2022-12-18T04:08:03;2.40;69.80
75931;DHT22;64609;47.052;15.462;2022-12-18T04:10:29;2.40;70.40
75931;DHT22;64609;47.052;15.462;2022-12-18T04:12:58;2.40;70.40
75931;DHT22;64609;47.052;15.462;2022-12-18T04:15:24;2.40;70.50
75931;DHT22;64609;47.052;15.462;2022-12-18T04:17:50;2.40;69.80
75931;DHT22;64609;47.052;15.462;2022-12-18T04:20:16;2.30;69.00
75931;DHT22;64609;47.052;15.462;2022-12-18T04:22:42;2.10;67.70
75931;DHT22;64609;47.052;15.462;2022-12-18T04:25:11;1.80;67.50
75931;DHT22;64609;47.052;15.462;2022-12-18T04:27:36;1.60;67.70
75931;DHT22;64609;47.052;15.462;2022-12-18T04:30:02;1.60;69.50
75931;DHT22;64609;47.052;15.462;2022-12-18T04:32:28;1.80;70.10
75931;DHT22;64609;47.052;15.462;2022-12-18T04:34:54;1.90;70.10
75931;DHT22;64609;47.052;15.462;2022-12-18T04:37:19;1.90;70.10
75931;DHT22;64609;47.052;15.462;2022-12-18T04:39:45;2.00;69.80
75931;DHT22;64609;47.052;15.462;2022-12-18T04:42:10;2.00;69.70
75931;DHT22;64609;47.052;15.462;2022-12-18T04:44:36;1.90;69.90
75931;DHT22;64609;47.052;15.462;2022-12-18T04:47:02;1.90;69.50
75931;DHT22;64609;47.052;15.462;2022-12-18T04:49:27;1.90;70.10
75931;DHT22;64609;47.052;15.462;2022-12-18T04:51:53;1.90;70.20
75931;DHT22;64609;47.052;15.462;2022-12-18T04:54:22;2.00;70.30
75931;DHT22;64609;47.052;15.462;2022-12-18T04:56:47;2.00;70.30
75931;DHT22;64609;47.052;15.462;2022-12-18T04:59:13;2.00;70.30
75931;DHT22;64609;47.052;15.462;2022-12-18T05:01:38;2.00;70.20
75931;DHT22;64609;47.052;15.462;2022-12-18T05:04:04;2.00;70.10
75931;DHT22;64609;47.052;15.462;2022-12-18T05:06:30;2.00;69.50
75931;DHT22;64609;47.052;15.462;2022-12-18T05:08:55;1.90;69.40
75931;DHT22;64609;47.052;15.462;2022-12-18T05:11:21;1.80;68.50
75931;DHT22;64609;47.052;15.462;2022-12-18T05:13:47;1.70;68.90
75931;DHT22;64609;47.052;15.462;2022-12-18T05:16:13;1.70;69.50
75931;DHT22;64609;47.052;15.462;2022-12-18T05:18:39;1.70;69.40
75931;DHT22;64609;47.052;15.462;2022-12-18T05:21:05;1.70;70.60
75931;DHT22;64609;47.052;15.462;2022-12-18T05:23:34;1.80;71.00
75931;DHT22;64609;47.052;15.462;2022-12-18T05:26:03;1.80;70.40
75931;DHT22;64609;47.052;15.462;2022-12-18T05:28:31;1.80;71.10
75931;DHT22;64609;47.052;15.462;2022-12-18T05:30:58;1.80;71.50
75931;DHT22;64609;47.052;15.462;2022-12-18T05:33:26;1.90;71.40
75931;DHT22;64609;47.052;15.462;2022-12-18T05:35:53;1.90;71.90
75931;DHT22;64609;47.052;15.462;2022-12-18T05:38:20;1.90;72.10
75931;DHT22;64609;47.052;15.462;2022-12-18T05:40:47;2.00;72.40
75931;DHT22;64609;47.052;15.462;2022-12-18T05:43:13;2.00;72.30
75931;DHT22;64609;47.052;15.462;2022-12-18T05:45:39;2.10;73.30
75931;DHT22;64609;47.052;15.462;2022-12-18T05:48:05;2.10;73.20
75931;DHT22;64609;47.052;15.462;2022-12-18T05:50:37;2.10;72.90
75931;DHT22;64609;47.052;15.462;2022-12-18T05:53:03;2.10;73.10
75931;DHT22;64609;47.052;15.462;2022-12-18T05:55:32;2.20;73.40
75931;DHT22;64609;47.052;15.462;2022-12-18T05:57:58;2.20;73.30
75931;DHT22;64609;47.052;15.462;2022-12-18T06:00:24;2.20;73.10
75931;DHT22;64609;47.052;15.462;2022-12-18T06:02:49;2.10;72.50
75931;DHT22;64609;47.052;15.462;2022-12-18T06:05:15;2.10;73.20
75931;DHT22;64609;47.052;15.462;2022-12-18T06:07:41;2.20;73.20
75931;DHT22;64609;47.052;15.462;2022-12-18T06:10:07;2.20;73.00
75931;DHT22;64609;47.052;15.462;2022-12-18T06:12:32;2.20;72.90
75931;DHT22;64609;47.052;15.462;2022-12-18T06:14:59;2.20;72.50
75931;DHT22;64609;47.052;15.462;2022-12-18T06:17:30;2.20;72.70
75931;DHT22;64609;47.052;15.462;2022-12-18T06:19:56;2.20;73.60
75931;DHT22;64609;47.052;15.462;2022-12-18T06:22:21;2.20;72.60
75931;DHT22;64609;47.052;15.462;2022-12-18T06:24:47;2.20;72.70
75931;DHT22;64609;47.052;15.462;2022-12-18T06:27:13;2.20;71.80
75931;DHT22;64609;47.052;15.462;2022-12-18T06:29:38;2.30;71.70
75931;DHT22;64609;47.052;15.462;2022-12-18T06:32:04;2.20;71.70
75931;DHT22;64609;47.052;15.462;2022-12-18T06:34:31;2.30;71.60
75931;DHT22;64609;47.052;15.462;2022-12-18T06:36:58;2.30;71.70
75931;DHT22;64609;47.052;15.462;2022-12-18T06:39:23;2.30;71.80
75931;DHT22;64609;47.052;15.462;2022-12-18T06:41:49;2.40;71.60
75931;DHT22;64609;47.052;15.462;2022-12-18T06:44:15;2.40;71.60
75931;DHT22;64609;47.052;15.462;2022-12-18T06:46:41;2.40;71.50
75931;DHT22;64609;47.052;15.462;2022-12-18T06:49:06;2.40;71.60
75931;DHT22;64609;47.052;15.462;2022-12-18T06:51:32;2.50;71.60
75931;DHT22;64609;47.052;15.462;2022-12-18T06:53:57;2.50;71.70
75931;DHT22;64609;47.052;15.462;2022-12-18T06:56:23;2.60;71.30
75931;DHT22;64609;47.052;15.462;2022-12-18T06:58:52;2.60;71.00
75931;DHT22;64609;47.052;15.462;2022-12-18T07:01:18;2.60;71.60
75931;DHT22;64609;47.052;15.462;2022-12-18T07:03:44;2.60;70.90
75931;DHT22;64609;47.052;15.462;2022-12-18T07:06:17;2.60;71.00
75931;DHT22;64609;47.052;15.462;2022-12-18T07:08:43;2.70;70.80
75931;DHT22;64609;47.052;15.462;2022-12-18T07:11:09;2.70;70.70
75931;DHT22;64609;47.052;15.462;2022-12-18T07:13:34;2.70;70.80
75931;DHT22;64609;47.052;15.462;2022-12-18T07:16:20;2.70;70.60
75931;DHT22;64609;47.052;15.462;2022-12-18T07:18:46;2.80;70.90
75931;DHT22;64609;47.052;15.462;2022-12-18T07:21:16;2.80;70.90
75931;DHT22;64609;47.052;15.462;2022-12-18T07:23:42;2.90;71.00
75931;DHT22;64609;47.052;15.462;2022-12-18T07:26:10;2.90;71.10
75931;DHT22;64609;47.052;15.462;2022-12-18T07:28:37;2.90;70.80
75931;DHT22;64609;47.052;15.462;2022-12-18T07:31:05;3.00;70.50
75931;DHT22;64609;47.052;15.462;2022-12-18T07:33:32;3.00;70.50
75931;DHT22;64609;47.052;15.462;2022-12-18T07:35:59;3.00;70.50
75931;DHT22;64609;47.052;15.462;2022-12-18T07:38:25;3.00;70.20
75931;DHT22;64609;47.052;15.462;2022-12-18T07:40:50;3.10;70.30
75931;DHT22;64609;47.052;15.462;2022-12-18T07:43:16;3.10;70.30
75931;DHT22;64609;47.052;15.462;2022-12-18T07:45:42;3.20;69.90
75931;DHT22;64609;47.052;15.462;2022-12-18T07:48:08;3.20;69.20
75931;DHT22;64609;47.052;15.462;2022-12-18T07:50:34;3.20;69.60
75931;DHT22;64609;47.052;15.462;2022-12-18T07:52:59;3.30;69.20
75931;DHT22;64609;47.052;15.462;2022-12-18T07:55:29;3.40;69.50
75931;DHT22;64609;47.052;15.462;2022-12-18T07:57:56;3.40;68.70
75931;DHT22;64609;47.052;15.462;2022-12-18T08:00:21;3.40;68.30
75931;DHT22;64609;47.052;15.462;2022-12-18T08:02:47;3.50;68.50
75931;DHT22;64609;47.052;15.462;2022-12-18T08:05:13;3.60;69.20
75931;DHT22;64609;47.052;15.462;2022-12-18T08:07:39;3.60;68.80
75931;DHT22;64609;47.052;15.462;2022-12-18T08:10:05;3.70;68.70
75931;DHT22;64609;47.052;15.462;2022-12-18T08:12:31;3.80;68.60
75931;DHT22;64609;47.052;15.462;2022-12-18T08:14:57;4.00;67.00
75931;DHT22;64609;47.052;15.462;2022-12-18T08:17:23;4.50;67.70
75931;DHT22;64609;47.052;15.462;2022-12-18T08:19:48;5.70;66.70
75931;DHT22;64609;47.052;15.462;2022-12-18T08:22:14;7.40;61.80
75931;DHT22;64609;47.052;15.462;2022-12-18T08:24:40;8.90;57.50
75931;DHT22;64609;47.052;15.462;2022-12-18T08:27:05;10.20;54.20
75931;DHT22;64609;47.052;15.462;2022-12-18T08:29:31;11.30;51.40
75931;DHT22;64609;47.052;15.462;2022-12-18T08:31:57;12.10;49.10
75931;DHT22;64609;47.052;15.462;2022-12-18T08:34:23;12.90;48.00
75931;DHT22;64609;47.052;15.462;2022-12-18T08:36:48;13.60;41.50
75931;DHT22;64609;47.052;15.462;2022-12-18T08:39:14;13.70;40.20
75931;DHT22;64609;47.052;15.462;2022-12-18T08:41:40;13.70;41.40
75931;DHT22;64609;47.052;15.462;2022-12-18T08:44:07;14.30;40.70
75931;DHT22;64609;47.052;15.462;2022-12-18T08:46:52;15.10;40.60
75931;DHT22;64609;47.052;15.462;2022-12-18T08:49:17;15.60;40.20
75931;DHT22;64609;47.052;15.462;2022-12-18T08:51:43;15.60;38.90
75931;DHT22;64609;47.052;15.462;2022-12-18T08:54:11;15.60;39.20
75931;DHT22;64609;47.052;15.462;2022-12-18T08:56:37;15.60;37.50
75931;DHT22;64609;47.052;15.462;2022-12-18T08:59:03;15.50;38.30
75931;DHT22;64609;47.052;15.462;2022-12-18T09:01:29;15.10;39.10
75931;DHT22;64609;47.052;15.462;2022-12-18T09:03:55;14.70;38.90
75931;DHT22;64609;47.052;15.462;2022-12-18T09:06:22;14.60;41.00
75931;DHT22;64609;47.052;15.462;2022-12-18T09:08:48;15.10;38.80
75931;DHT22;64609;47.052;15.462;2022-12-18T09:11:24;15.60;37.50
75931;DHT22;64609;47.052;15.462;2022-12-18T09:13:50;16.10;36.80
75931;DHT22;64609;47.052;15.462;2022-12-18T09:16:17;16.80;36.70
75931;DHT22;64609;47.052;15.462;2022-12-18T09:18:43;17.50;35.60
75931;DHT22;64609;47.052;15.462;2022-12-18T09:21:10;17.90;33.90
75931;DHT22;64609;47.052;15.462;2022-12-18T09:23:36;18.20;33.90
75931;DHT22;64609;47.052;15.462;2022-12-18T09:26:02;18.50;32.80
75931;DHT22;64609;47.052;15.462;2022-12-18T09:28:28;18.70;33.00
75931;DHT22;64609;47.052;15.462;2022-12-18T09:30:53;18.80;31.80
75931;DHT22;64609;47.052;15.462;2022-12-18T09:33:19;18.90;31.90
75931;DHT22;64609;47.052;15.462;2022-12-18T09:35:45;19.10;30.90
75931;DHT22;64609;47.052;15.462;2022-12-18T09:38:13;19.10;31.50
75931;DHT22;64609;47.052;15.462;2022-12-18T09:40:51;19.10;30.50
75931;DHT22;64609;47.052;15.462;2022-12-18T09:43:21;19.20;30.50
75931;DHT22;64609;47.052;15.462;2022-12-18T09:45:53;18.40;30.20
75931;DHT22;64609;47.052;15.462;2022-12-18T09:48:36;17.00;30.70
75931;DHT22;64609;47.052;15.462;2022-12-18T09:51:16;15.60;32.20
75931;DHT22;64609;47.052;15.462;2022-12-18T09:53:47;15.40;34.00
75931;DHT22;64609;47.052;15.462;2022-12-18T09:56:20;15.00;35.20
75931;DHT22;64609;47.052;15.462;2022-12-18T09:58:59;13.40;35.70
75931;DHT22;64609;47.052;15.462;2022-12-18T10:01:27;12.70;37.20
75931;DHT22;64609;47.052;15.462;2022-12-18T10:03:53;13.30;38.20
75931;DHT22;64609;47.052;15.462;2022-12-18T10:06:42;13.70;36.20
75931;DHT22;64609;47.052;15.462;2022-12-18T10:11:58;12.10;38.00
75931;DHT22;64609;47.052;15.462;2022-12-18T10:14:58;11.70;39.70
75931;DHT22;64609;47.052;15.462;2022-12-18T10:20:43;12.20;40.10
75931;DHT22;64609;47.052;15.462;2022-12-18T10:23:04;12.70;39.20
75931;DHT22;64609;47.052;15.462;2022-12-18T10:28:27;12.30;39.20
75931;DHT22;64609;47.052;15.462;2022-12-18T10:30:54;11.30;39.90
75931;DHT22;64609;47.052;15.462;2022-12-18T10:33:27;10.40;42.50
75931;DHT22;64609;47.052;15.462;2022-12-18T10:35:54;9.60;43.50
75931;DHT22;64609;47.052;15.462;2022-12-18T10:38:26;9.00;45.20
75931;DHT22;64609;47.052;15.462;2022-12-18T10:40:56;8.50;46.70
75931;DHT22;64609;47.052;15.462;2022-12-18T10:46:17;7.70;48.70
75931;DHT22;64609;47.052;15.462;2022-12-18T10:54:00;6.60;50.60
75931;DHT22;64609;47.052;15.462;2022-12-18T10:56:29;6.50;51.70
75931;DHT22;64609;47.052;15.462;2022-12-18T10:59:15;6.10;51.80
75931;DHT22;64609;47.052;15.462;2022-12-18T11:01:51;5.80;53.40
75931;DHT22;64609;47.052;15.462;2022-12-18T11:06:54;5.70;55.60
75931;DHT22;64609;47.052;15.462;2022-12-18T11:09:23;5.80;57.00
75931;DHT22;64609;47.052;15.462;2022-12-18T11:11:51;5.90;56.20
75931;DHT22;64609;47.052;15.462;2022-12-18T11:14:26;5.90;56.10
75931;DHT22;64609;47.052;15.462;2022-12-18T11:16:53;5.90;57.10
75931;DHT22;64609;47.052;15.462;2022-12-18T11:19:26;5.80;58.20
75931;DHT22;64609;47.052;15.462;2022-12-18T11:21:53;5.80;56.30
75931;DHT22;64609;47.052;15.462;2022-12-18T11:24:33;5.70;56.20
75931;DHT22;64609;47.052;15.462;2022-12-18T11:27:04;5.50;56.60
75931;DHT22;64609;47.052;15.462;2022-12-18T11:34:42;5.20;58.30
75931;DHT22;64609;47.052;15.462;2022-12-18T11:37:11;5.20;58.30
75931;DHT22;64609;47.052;15.462;2022-12-18T11:39:56;5.00;58.40
75931;DHT22;64609;47.052;15.462;2022-12-18T11:50:26;5.00;61.60
75931;DHT22;64609;47.052;15.462;2022-12-18T11:52:53;5.00;61.10
75931;DHT22;64609;47.052;15.462;2022-12-18T12:00:38;5.10;61.20
75931;DHT22;64609;47.052;15.462;2022-12-18T12:03:24;5.10;62.00
75931;DHT22;64609;47.052;15.462;2022-12-18T12:06:17;5.10;62.10
75931;DHT22;64609;47.052;15.462;2022-12-18T12:25:12;4.30;62.00
75931;DHT22;64609;47.052;15.462;2022-12-18T12:27:53;4.20;63.20
75931;DHT22;64609;47.052;15.462;2022-12-18T12:33:26;4.10;63.20
75931;DHT22;64609;47.052;15.462;2022-12-18T12:39:01;4.10;65.70
75931;DHT22;64609;47.052;15.462;2022-12-18T12:41:33;4.30;67.10
75931;DHT22;64609;47.052;15.462;2022-12-18T12:44:25;4.50;66.80
75931;DHT22;64609;47.052;15.462;2022-12-18T12:46:56;4.50;64.80
75931;DHT22;64609;47.052;15.462;2022-12-18T12:49:29;4.50;65.30
75931;DHT22;64609;47.052;15.462;2022-12-18T12:52:10;4.50;66.20
75931;DHT22;64609;47.052;15.462;2022-12-18T12:54:37;4.60;66.70
75931;DHT22;64609;47.052;15.462;2022-12-18T12:57:20;4.60;66.30
75931;DHT22;64609;47.052;15.462;2022-12-18T13:00:11;4.70;66.80
75931;DHT22;64609;47.052;15.462;2022-12-18T13:12:57;4.70;66.60
75931;DHT22;64609;47.052;15.462;2022-12-18T13:20:36;4.70;66.70
75931;DHT22;64609;47.052;15.462;2022-12-18T13:31:00;4.70;67.20
75931;DHT22;64609;47.052;15.462;2022-12-18T13:33:34;4.70;67.30
75931;DHT22;64609;47.052;15.462;2022-12-18T13:36:30;4.70;67.90
75931;DHT22;64609;47.052;15.462;2022-12-18T13:41:45;4.50;67.20
75931;DHT22;64609;47.052;15.462;2022-12-18T13:44:39;4.50;67.60
75931;DHT22;64609;47.052;15.462;2022-12-18T13:49:50;4.40;66.30
75931;DHT22;64609;47.052;15.462;2022-12-18T13:52:22;4.40;67.90
75931;DHT22;64609;47.052;15.462;2022-12-18T13:54:54;4.50;68.20
75931;DHT22;64609;47.052;15.462;2022-12-18T13:57:35;4.60;68.50
75931;DHT22;64609;47.052;15.462;2022-12-18T14:02:49;4.60;68.60
75931;DHT22;64609;47.052;15.462;2022-12-18T14:05:24;4.70;68.40
75931;DHT22;64609;47.052;15.462;2022-12-18T14:07:50;4.70;68.10
75931;DHT22;64609;47.052;15.462;2022-12-18T14:10:17;4.70;67.80
75931;DHT22;64609;47.052;15.462;2022-12-18T14:12:50;4.70;68.30
75931;DHT22;64609;47.052;15.462;2022-12-18T14:20:48;4.70;68.70
75931;DHT22;64609;47.052;15.462;2022-12-18T14:23:36;4.70;68.10
75931;DHT22;64609;47.052;15.462;2022-12-18T14:26:19;4.70;68.20
75931;DHT22;64609;47.052;15.462;2022-12-18T14:28:46;4.70;68.10
75931;DHT22;64609;47.052;15.462;2022-12-18T14:31:22;4.70;68.10
75931;DHT22;64609;47.052;15.462;2022-12-18T14:33:49;4.70;68.00
75931;DHT22;64609;47.052;15.462;2022-12-18T14:36:27;4.70;67.90
75931;DHT22;64609;47.052;15.462;2022-12-18T14:38:54;4.70;68.10
75931;DHT22;64609;47.052;15.462;2022-12-18T14:41:21;4.60;68.10
75931;DHT22;64609;47.052;15.462;2022-12-18T14:43:50;4.70;68.40
75931;DHT22;64609;47.052;15.462;2022-12-18T14:46:44;4.60;68.60
75931;DHT22;64609;47.052;15.462;2022-12-18T14:49:30;4.70;69.10
75931;DHT22;64609;47.052;15.462;2022-12-18T14:52:13;4.70;68.40
75931;DHT22;64609;47.052;15.462;2022-12-18T14:54:46;4.70;69.00
75931;DHT22;64609;47.052;15.462;2022-12-18T14:57:24;4.70;68.90
75931;DHT22;64609;47.052;15.462;2022-12-18T14:59:50;4.70;68.60
75931;DHT22;64609;47.052;15.462;2022-12-18T15:02:23;4.70;68.30
75931;DHT22;64609;47.052;15.462;2022-12-18T15:05:05;4.70;68.90
75931;DHT22;64609;47.052;15.462;2022-12-18T15:07:45;4.60;67.40
75931;DHT22;64609;47.052;15.462;2022-12-18T15:10:17;4.60;67.50
75931;DHT22;64609;47.052;15.462;2022-12-18T15:13:07;4.60;67.90
75931;DHT22;64609;47.052;15.462;2022-12-18T15:18:05;4.60;68.50
75931;DHT22;64609;47.052;15.462;2022-12-18T15:23:20;4.60;69.20
75931;DHT22;64609;47.052;15.462;2022-12-18T15:25:58;4.60;69.00
75931;DHT22;64609;47.052;15.462;2022-12-18T15:28:39;4.70;69.60
75931;DHT22;64609;47.052;15.462;2022-12-18T15:36:27;4.70;69.50
75931;DHT22;64609;47.052;15.462;2022-12-18T15:38:55;4.70;69.80
75931;DHT22;64609;47.052;15.462;2022-12-18T15:41:22;4.70;69.20
75931;DHT22;64609;47.052;15.462;2022-12-18T15:43:49;4.70;68.80
75931;DHT22;64609;47.052;15.462;2022-12-18T15:46:18;4.70;69.10
75931;DHT22;64609;47.052;15.462;2022-12-18T15:48:55;4.70;68.80
75931;DHT22;64609;47.052;15.462;2022-12-18T15:51:32;4.70;69.10
75931;DHT22;64609;47.052;15.462;2022-12-18T15:54:03;4.70;69.70
75931;DHT22;64609;47.052;15.462;2022-12-18T15:56:30;4.70;69.20
75931;DHT22;64609;47.052;15.462;2022-12-18T15:59:17;4.70;69.10
75931;DHT22;64609;47.052;15.462;2022-12-18T16:01:45;4.70;69.90
75931;DHT22;64609;47.052;15.462;2022-12-18T16:04:13;4.70;69.30
75931;DHT22;64609;47.052;15.462;2022-12-18T16:06:39;4.70;69.30
75931;DHT22;64609;47.052;15.462;2022-12-18T16:09:05;4.80;69.30
75931;DHT22;64609;47.052;15.462;2022-12-18T16:11:32;4.80;68.90
75931;DHT22;64609;47.052;15.462;2022-12-18T16:14:27;4.70;68.70
75931;DHT22;64609;47.052;15.462;2022-12-18T16:16:56;4.70;69.80
75931;DHT22;64609;47.052;15.462;2022-12-18T16:19:22;4.80;69.10
75931;DHT22;64609;47.052;15.462;2022-12-18T16:21:49;4.80;69.10
75931;DHT22;64609;47.052;15.462;2022-12-18T16:24:23;4.70;69.20
75931;DHT22;64609;47.052;15.462;2022-12-18T16:26:50;4.80;69.10
75931;DHT22;64609;47.052;15.462;2022-12-18T16:29:22;4.70;68.80
75931;DHT22;64609;47.052;15.462;2022-12-18T16:31:59;4.70;68.80
75931;DHT22;64609;47.052;15.462;2022-12-18T16:34:33;4.70;68.60
75931;DHT22;64609;47.052;15.462;2022-12-18T16:37:06;4.70;69.00
75931;DHT22;64609;47.052;15.462;2022-12-18T16:39:33;4.80;70.00
75931;DHT22;64609;47.052;15.462;2022-12-18T16:42:04;4.80;69.30
75931;DHT22;64609;47.052;15.462;2022-12-18T16:44:30;4.80;69.40
75931;DHT22;64609;47.052;15.462;2022-12-18T16:46:56;4.80;69.10
75931;DHT22;64609;47.052;15.462;2022-12-18T16:49:26;4.80;68.60
75931;DHT22;64609;47.052;15.462;2022-12-18T16:51:52;4.70;67.90
75931;DHT22;64609;47.052;15.462;2022-12-18T16:54:19;4.70;68.70
75931;DHT22;64609;47.052;15.462;2022-12-18T16:56:46;4.80;69.30
75931;DHT22;64609;47.052;15.462;2022-12-18T16:59:15;4.70;68.60
75931;DHT22;64609;47.052;15.462;2022-12-18T17:01:43;4.80;69.10
75931;DHT22;64609;47.052;15.462;2022-12-18T17:04:09;4.80;68.50
75931;DHT22;64609;47.052;15.462;2022-12-18T17:06:39;4.80;68.70
75931;DHT22;64609;47.052;15.462;2022-12-18T17:09:10;4.80;68.60
75931;DHT22;64609;47.052;15.462;2022-12-18T17:11:36;4.80;68.50
75931;DHT22;64609;47.052;15.462;2022-12-18T17:14:12;4.80;68.80
75931;DHT22;64609;47.052;15.462;2022-12-18T17:16:38;4.80;68.50
75931;DHT22;64609;47.052;15.462;2022-12-18T17:19:04;4.80;69.10
75931;DHT22;64609;47.052;15.462;2022-12-18T17:21:30;4.80;68.80
75931;DHT22;64609;47.052;15.462;2022-12-18T17:24:00;4.70;68.60
75931;DHT22;64609;47.052;15.462;2022-12-18T17:26:27;4.70;68.40
75931;DHT22;64609;47.052;15.462;2022-12-18T17:28:56;4.80;68.60
75931;DHT22;64609;47.052;15.462;2022-12-18T17:31:24;4.70;69.00
75931;DHT22;64609;47.052;15.462;2022-12-18T17:33:50;4.80;69.60
75931;DHT22;64609;47.052;15.462;2022-12-18T17:36:17;4.80;69.80
75931;DHT22;64609;47.052;15.462;2022-12-18T17:38:51;4.80;68.80
75931;DHT22;64609;47.052;15.462;2022-12-18T17:41:18;4.80;69.60
75931;DHT22;64609;47.052;15.462;2022-12-18T17:43:53;4.80;68.60
75931;DHT22;64609;47.052;15.462;2022-12-18T17:46:19;4.80;69.10
75931;DHT22;64609;47.052;15.462;2022-12-18T17:48:45;4.80;68.80
75931;DHT22;64609;47.052;15.462;2022-12-18T17:51:13;4.80;68.70
75931;DHT22;64609;47.052;15.462;2022-12-18T17:53:40;4.70;67.50
75931;DHT22;64609;47.052;15.462;2022-12-18T17:56:09;4.70;69.00
75931;DHT22;64609;47.052;15.462;2022-12-18T17:58:36;4.60;67.70
75931;DHT22;64609;47.052;15.462;2022-12-18T18:01:03;4.40;66.40
75931;DHT22;64609;47.052;15.462;2022-12-18T18:03:30;4.30;67.20
75931;DHT22;64609;47.052;15.462;2022-12-18T18:06:01;4.30;67.70
75931;DHT22;64609;47.052;15.462;2022-12-18T18:08:27;4.30;68.00
75931;DHT22;64609;47.052;15.462;2022-12-18T18:10:54;4.40;68.90
75931;DHT22;64609;47.052;15.462;2022-12-18T18:13:24;4.40;68.90
75931;DHT22;64609;47.052;15.462;2022-12-18T18:16:10;4.50;68.90
75931;DHT22;64609;47.052;15.462;2022-12-18T18:18:36;4.50;68.90
75931;DHT22;64609;47.052;15.462;2022-12-18T18:21:07;4.50;67.80